Time;durP1;ratioP1;P1;durP2;ratioP2;P2;SDS_P1;SDS_P2;PMS_P1;PMS_P2;Temp;Humidity;BMP_temperature;BMP_pressure;BME280_temperature;BME280_humidity;BME280_pressure;Samples;Min_cycle;Max_cycle;Signal;HPM_P1;HPM_P2
2023/04/07 00:01:46;;;;;;;4.40;3.27;;;;;;;19.33;47.66;97494.75;4950572;29;20232;-28
2023/04/07 00:04:12;;;;;;;6.07;3.07;;;;;;;19.44;47.76;97510.44;4946232;29;20201;-29
2023/04/07 00:06:39;;;;;;;4.00;3.10;;;;;;;19.45;47.99;97512.22;4952231;29;20212;-31
2023/04/07 00:09:06;;;;;;;3.80;3.10;;;;;;;19.41;47.76;97513.75;4949137;29;20236;-28
2023/04/07 00:11:32;;;;;;;3.37;3.07;;;;;;;19.44;47.41;97513.00;4946736;28;20702;-32
2023/04/07 00:13:59;;;;;;;3.20;2.77;;;;;;;19.43;47.92;97513.81;4953585;29;20215;-30
2023/04/07 00:16:26;;;;;;;3.73;3.00;;;;;;;19.43;47.79;97512.16;4954361;28;20196;-29
2023/04/07 00:18:52;;;;;;;3.57;3.27;;;;;;;19.39;47.78;97502.63;4946073;29;20585;-28
2023/04/07 00:21:19;;;;;;;3.83;3.33;;;;;;;19.44;47.57;97507.91;4945320;28;20651;-28
2023/04/07 00:23:46;;;;;;;3.50;3.20;;;;;;;19.41;47.69;97493.38;4953044;28;20287;-29
2023/04/07 00:26:13;;;;;;;3.77;3.00;;;;;;;19.44;47.56;97492.59;4950789;29;20200;-28
2023/04/07 00:28:39;;;;;;;3.77;3.10;;;;;;;19.42;47.62;97496.81;4946039;29;20224;-29
2023/04/07 00:31:06;;;;;;;3.10;2.53;;;;;;;19.02;47.74;97424.75;4946029;29;20255;-30
2023/04/07 00:33:32;;;;;;;4.17;3.27;;;;;;;19.39;47.98;97483.94;4942107;29;20633;-29
2023/04/07 00:35:59;;;;;;;3.90;3.03;;;;;;;19.43;47.66;97486.66;4944471;29;20210;-28
2023/04/07 00:38:26;;;;;;;3.67;3.13;;;;;;;19.43;47.77;97479.03;4942763;28;20220;-29
2023/04/07 00:40:58;;;;;;;4.60;3.43;;;;;;;19.38;47.89;97470.31;4943219;29;20242;-28
2023/04/07 00:43:25;;;;;;;3.47;3.17;;;;;;;19.43;47.76;97473.91;4945824;29;20204;-29
2023/04/07 00:45:52;;;;;;;4.73;3.40;;;;;;;19.37;47.74;97468.59;4944098;29;20220;-28
2023/04/07 00:48:19;;;;;;;3.67;3.20;;;;;;;19.42;47.74;97469.63;4953020;28;20196;-29
2023/04/07 00:50:46;;;;;;;5.47;3.30;;;;;;;19.44;47.87;97474.75;4920892;29;20221;-28
2023/04/07 00:53:12;;;;;;;3.97;3.50;;;;;;;19.42;48.06;97456.88;4952037;29;20291;-28
2023/04/07 00:55:39;;;;;;;3.20;2.90;;;;;;;19.41;47.42;97452.59;4941371;29;20563;-27
2023/04/07 00:58:05;;;;;;;4.00;3.57;;;;;;;19.42;47.27;97456.03;4945278;29;20223;-29
2023/04/07 01:00:42;;;;;;;4.77;3.37;;;;;;;19.39;47.77;97448.28;4947284;29;20216;-29
2023/04/07 01:03:11;;;;;;;4.40;3.43;;;;;;;19.32;47.69;97434.44;4925793;29;20201;-29
2023/04/07 01:05:43;;;;;;;3.60;3.20;;;;;;;19.37;47.90;97443.13;4909298;29;20208;-33
2023/04/07 01:08:16;;;;;;;4.57;3.17;;;;;;;19.44;47.65;97444.19;4932629;29;20204;-35
2023/04/07 01:10:55;;;;;;;4.10;3.70;;;;;;;19.38;47.89;97433.78;4920696;29;20259;-35
2023/04/07 01:13:42;;;;;;;3.40;2.97;;;;;;;19.43;47.84;97448.44;4925135;29;20653;-32
2023/04/07 01:16:11;;;;;;;3.50;3.20;;;;;;;19.42;47.76;97440.75;4931623;29;20199;-28
2023/04/07 01:18:38;;;;;;;3.17;2.90;;;;;;;19.42;47.74;97451.78;4920893;29;20275;-28
2023/04/07 01:21:13;;;;;;;3.33;2.97;;;;;;;19.40;47.77;97444.91;4928203;29;20216;-29
2023/04/07 01:24:08;;;;;;;2.73;2.50;;;;;;;19.42;47.65;97444.13;4947181;28;20204;-28
2023/04/07 01:26:35;;;;;;;3.67;3.07;;;;;;;19.42;47.84;97454.31;4933344;29;20207;-28
2023/04/07 01:29:17;;;;;;;4.13;3.53;;;;;;;19.42;47.76;97448.38;4918098;29;20288;-27
2023/04/07 01:31:43;;;;;;;3.47;3.13;;;;;;;19.35;47.76;97431.13;4944442;29;20304;-29
2023/04/07 01:34:10;;;;;;;3.20;2.80;;;;;;;19.38;47.87;97433.78;4938683;29;20211;-29
2023/04/07 01:36:37;;;;;;;3.30;3.00;;;;;;;19.40;47.48;97439.81;4935939;29;20211;-37
2023/04/07 01:39:04;;;;;;;3.30;3.00;;;;;;;19.37;48.06;97435.47;4951466;29;20220;-29
2023/04/07 01:41:31;;;;;;;3.23;2.83;;;;;;;19.41;47.93;97442.41;4936790;29;20216;-29
2023/04/07 01:43:57;;;;;;;4.17;3.23;;;;;;;19.36;47.58;97436.25;4937842;29;20209;-28
2023/04/07 01:46:24;;;;;;;3.70;3.27;;;;;;;19.39;47.55;97440.63;4934182;29;20212;-29
2023/04/07 01:48:50;;;;;;;4.37;3.50;;;;;;;19.42;47.89;97456.03;4956778;28;20207;-28
2023/04/07 01:51:17;;;;;;;3.40;3.10;;;;;;;19.35;47.93;97436.22;4939413;28;20224;-28
2023/04/07 01:53:44;;;;;;;3.27;2.97;;;;;;;19.26;47.94;97421.44;4919339;29;20228;-32
2023/04/07 01:56:11;;;;;;;3.33;3.00;;;;;;;19.42;47.61;97449.22;4946760;28;20228;-28
2023/04/07 01:58:38;;;;;;;3.83;3.00;;;;;;;19.41;47.93;97442.41;4923058;29;20231;-28
2023/04/07 02:01:05;;;;;;;3.20;2.90;;;;;;;19.41;48.17;97442.41;4944589;28;20225;-28
2023/04/07 02:03:45;;;;;;;3.30;3.00;;;;;;;19.42;47.92;97435.63;4942582;29;20200;-28
2023/04/07 02:06:15;;;;;;;3.10;2.90;;;;;;;19.43;48.02;97437.38;4931402;29;20283;-29
2023/04/07 02:08:46;;;;;;;3.40;2.90;;;;;;;19.39;47.92;97425.34;4939639;29;20545;-29
2023/04/07 02:11:13;;;;;;;3.10;2.80;;;;;;;19.40;48.07;97425.38;4920648;29;20263;-30
2023/04/07 02:13:40;;;;;;;3.47;3.17;;;;;;;19.42;47.97;97426.28;4918349;29;20584;-29
2023/04/07 02:16:06;;;;;;;3.33;2.80;;;;;;;19.42;48.07;97433.94;4920695;29;20674;-30
2023/04/07 02:18:33;;;;;;;3.00;2.80;;;;;;;19.39;47.97;97418.53;4938597;28;20224;-29
2023/04/07 02:21:00;;;;;;;3.10;2.80;;;;;;;19.38;47.90;97419.38;4933120;29;20374;-27
2023/04/07 02:23:26;;;;;;;3.37;2.83;;;;;;;19.41;48.23;97431.34;4921356;29;20287;-28
2023/04/07 02:25:56;;;;;;;3.40;3.10;;;;;;;19.42;47.86;97433.09;4923046;29;20295;-28
2023/04/07 02:28:23;;;;;;;3.13;2.83;;;;;;;19.37;48.00;97426.94;4952034;29;20197;-28
2023/04/07 02:30:50;;;;;;;4.67;3.27;;;;;;;19.33;47.94;97422.56;4947212;29;20695;-28
2023/04/07 02:33:16;;;;;;;3.63;3.03;;;;;;;19.40;48.04;97432.16;4945459;29;20205;-27
2023/04/07 02:35:43;;;;;;;3.53;3.23;;;;;;;19.40;47.53;97433.03;4955347;29;20251;-28
2023/04/07 02:38:10;;;;;;;3.50;3.20;;;;;;;19.35;47.81;97421.78;4929776;29;20762;-29
2023/04/07 02:40:36;;;;;;;3.43;3.13;;;;;;;19.40;47.82;97433.03;4953843;29;20571;-29
2023/04/07 02:43:04;;;;;;;4.07;3.00;;;;;;;19.39;48.35;97426.19;4946238;29;20303;-29
2023/04/07 02:45:30;;;;;;;3.83;3.27;;;;;;;19.37;48.03;97429.50;4950844;28;20204;-30
2023/04/07 02:47:57;;;;;;;3.70;3.37;;;;;;;19.37;47.80;97426.94;4940417;29;20221;-29
2023/04/07 02:50:24;;;;;;;3.27;2.93;;;;;;;19.39;47.72;97435.53;4955696;28;20308;-29
2023/04/07 02:52:51;;;;;;;3.20;2.90;;;;;;;19.31;47.42;97419.09;4948076;29;20208;-29
2023/04/07 02:55:18;;;;;;;4.00;3.33;;;;;;;19.39;47.83;97430.44;4951568;28;20464;-29
2023/04/07 02:57:44;;;;;;;3.80;3.40;;;;;;;19.37;47.37;97429.50;4955095;29;20315;-28
2023/04/07 03:00:11;;;;;;;3.37;3.07;;;;;;;19.38;47.81;97442.28;4942212;28;20224;-29
2023/04/07 03:02:38;;;;;;;3.33;2.87;;;;;;;19.39;47.37;97432.97;4955254;28;20224;-28
2023/04/07 03:05:05;;;;;;;3.50;3.20;;;;;;;19.39;47.87;97423.63;4944504;29;20246;-28
2023/04/07 03:07:31;;;;;;;3.30;3.00;;;;;;;19.40;47.82;97429.59;4951696;29;20587;-29
2023/04/07 03:09:58;;;;;;;4.30;3.13;;;;;;;19.41;47.63;97429.66;4946659;29;20228;-28
2023/04/07 03:12:25;;;;;;;3.33;3.03;;;;;;;19.42;47.87;97417.81;4949109;28;20209;-28
2023/04/07 03:14:51;;;;;;;3.23;2.93;;;;;;;19.43;47.57;97419.53;4953149;28;20595;-29
2023/04/07 03:17:18;;;;;;;3.50;3.20;;;;;;;19.41;47.58;97414.38;4953156;28;20457;-29
2023/04/07 03:19:45;;;;;;;3.20;2.90;;;;;;;19.41;47.66;97409.28;4952713;28;20745;-29
2023/04/07 03:22:12;;;;;;;3.60;3.07;;;;;;;19.43;48.10;97406.78;4944460;29;20232;-29
2023/04/07 03:24:40;;;;;;;3.27;2.97;;;;;;;19.37;47.92;97394.69;4952250;29;20204;-29
2023/04/07 03:27:06;;;;;;;3.57;3.20;;;;;;;19.41;48.00;97399.09;4954221;28;20627;-30
2023/04/07 03:29:33;;;;;;;3.77;3.37;;;;;;;19.44;47.13;97401.75;4950000;28;20196;-28
2023/04/07 03:31:59;;;;;;;4.43;3.23;;;;;;;19.50;48.21;97412.16;4944683;29;20212;-27
2023/04/07 03:34:26;;;;;;;3.03;2.73;;;;;;;19.51;47.75;97411.31;4943014;29;20582;-27
2023/04/07 03:36:53;;;;;;;3.17;2.87;;;;;;;19.49;47.98;97405.31;4945930;29;20208;-29
2023/04/07 03:39:20;;;;;;;3.30;3.00;;;;;;;19.53;47.19;97413.94;4950914;28;20223;-28
2023/04/07 03:41:46;;;;;;;3.77;3.40;;;;;;;19.54;47.47;97411.44;4950701;28;20252;-28
2023/04/07 03:44:13;;;;;;;3.80;3.20;;;;;;;19.55;47.63;97409.75;4945528;29;20205;-29
2023/04/07 03:46:39;;;;;;;3.40;3.10;;;;;;;19.55;47.35;97404.66;4937792;29;20220;-35
2023/04/07 03:49:06;;;;;;;3.07;2.87;;;;;;;19.56;47.63;97411.50;4944203;29;20203;-29
2023/04/07 03:51:33;;;;;;;3.60;3.27;;;;;;;19.53;47.33;97401.19;4951309;29;20761;-28
2023/04/07 03:54:00;;;;;;;3.20;2.90;;;;;;;19.57;47.51;97406.44;4954311;29;20204;-28
2023/04/07 03:56:26;;;;;;;3.30;3.00;;;;;;;19.59;47.71;97406.50;4949984;28;20263;-27
2023/04/07 03:58:54;;;;;;;3.40;3.07;;;;;;;19.54;47.57;97393.59;4945217;29;20235;-28
2023/04/07 04:01:21;;;;;;;3.30;3.00;;;;;;;19.60;47.53;97401.44;4919494;29;20248;-27
2023/04/07 04:03:48;;;;;;;3.50;3.20;;;;;;;19.53;47.42;97389.31;4936934;29;20197;-27
2023/04/07 04:06:15;;;;;;;3.80;3.40;;;;;;;19.60;47.65;97403.16;4947943;28;20196;-28
2023/04/07 04:08:42;;;;;;;3.47;3.17;;;;;;;19.61;47.93;97400.66;4951331;29;20236;-28
2023/04/07 04:11:08;;;;;;;3.37;3.07;;;;;;;19.62;47.70;97398.94;4951125;28;20270;-29
2023/04/07 04:13:35;;;;;;;3.83;3.43;;;;;;;19.63;47.53;97400.72;4948137;28;20196;-28
2023/04/07 04:16:02;;;;;;;3.63;3.30;;;;;;;19.63;47.34;97396.47;4947251;28;20200;-28
2023/04/07 04:18:29;;;;;;;3.47;3.17;;;;;;;19.63;47.15;97393.06;4934519;29;20256;-28
2023/04/07 04:20:56;;;;;;;3.00;2.77;;;;;;;19.64;47.38;97394.78;4942531;29;20255;-28
2023/04/07 04:23:22;;;;;;;3.57;3.23;;;;;;;19.46;47.32;97359.34;4953260;28;20196;-27
2023/04/07 04:25:49;;;;;;;3.33;3.03;;;;;;;19.64;47.04;97387.13;4953313;28;20196;-29
2023/04/07 04:28:15;;;;;;;3.30;3.00;;;;;;;19.64;47.30;97382.03;4943945;29;20284;-29
2023/04/07 04:30:42;;;;;;;3.30;3.00;;;;;;;19.65;46.63;97386.31;4951822;28;20248;-28
2023/04/07 04:33:09;;;;;;;3.40;3.10;;;;;;;19.62;47.47;97394.72;4942770;29;20212;-28
2023/04/07 04:35:35;;;;;;;3.30;3.00;;;;;;;19.65;47.23;97391.41;4945363;29;20203;-28
2023/04/07 04:38:02;;;;;;;3.77;3.40;;;;;;;19.66;47.20;97388.06;4940016;29;20655;-29
2023/04/07 04:40:28;;;;;;;3.30;3.00;;;;;;;19.66;47.06;97388.91;4947597;28;20230;-28
2023/04/07 04:42:55;;;;;;;4.23;3.07;;;;;;;19.67;47.52;97392.34;4932540;29;20298;-30
2023/04/07 04:45:21;;;;;;;4.20;3.57;;;;;;;19.65;47.33;97392.28;4946916;29;20201;-28
2023/04/07 04:47:48;;;;;;;12.37;3.13;;;;;;;19.67;46.78;97389.78;4942214;29;20212;-33
2023/04/07 04:50:15;;;;;;;4.63;3.30;;;;;;;19.55;47.21;97371.53;4938276;28;20240;-29
2023/04/07 04:52:42;;;;;;;6.83;3.37;;;;;;;19.63;47.59;97385.41;4942128;29;20747;-28
2023/04/07 04:55:09;;;;;;;6.63;3.60;;;;;;;19.68;47.40;97394.06;4947885;29;20196;-29
2023/04/07 04:57:38;;;;;;;5.27;3.13;;;;;;;19.65;46.88;97387.19;4945805;29;20287;-27
2023/04/07 05:00:06;;;;;;;5.43;3.13;;;;;;;19.67;47.13;97393.22;4941628;29;20223;-32
2023/04/07 05:02:33;;;;;;;6.03;3.40;;;;;;;19.60;46.94;97385.31;4945715;29;20287;-29
2023/04/07 05:05:00;;;;;;;4.13;2.90;;;;;;;19.67;47.05;97390.66;4951615;28;20204;-29
2023/04/07 05:07:27;;;;;;;4.73;3.40;;;;;;;19.68;47.13;97394.06;4942007;28;20208;-29
2023/04/07 05:09:53;;;;;;;6.00;3.03;;;;;;;19.68;47.24;97388.97;4950346;28;20238;-29
2023/04/07 05:12:20;;;;;;;4.67;4.03;;;;;;;19.69;46.90;97398.38;4954894;29;20200;-29
2023/04/07 05:14:47;;;;;;;8.23;3.50;;;;;;;19.69;46.77;97398.38;4952959;29;20206;-28
2023/04/07 05:17:13;;;;;;;5.80;3.43;;;;;;;19.69;46.73;97398.38;4954301;28;20214;-29
2023/04/07 05:19:40;;;;;;;4.40;3.70;;;;;;;19.64;46.79;97389.69;4951860;28;20706;-31
2023/04/07 05:22:06;;;;;;;6.47;3.93;;;;;;;19.61;47.04;97381.94;4953308;28;20204;-28
2023/04/07 05:24:33;;;;;;;11.07;3.50;;;;;;;19.68;46.43;97394.94;4953634;28;20200;-29
2023/04/07 05:27:00;;;;;;;8.87;3.87;;;;;;;19.69;46.88;97390.72;4951509;28;20200;-27
2023/04/07 05:29:27;;;;;;;10.87;3.80;;;;;;;19.57;46.80;97375.00;4950596;28;20202;-28
2023/04/07 05:31:53;;;;;;;12.67;5.20;;;;;;;19.69;45.11;97395.81;4952147;29;20303;-28
2023/04/07 05:34:20;;;;;;;14.77;5.43;;;;;;;19.67;44.03;97388.13;4946505;29;20292;-28
2023/04/07 05:36:47;;;;;;;11.40;6.10;;;;;;;19.64;41.98;97393.13;4952228;29;20295;-29
2023/04/07 05:39:13;;;;;;;13.97;8.00;;;;;;;19.64;39.45;97392.25;4946554;29;20316;-29
2023/04/07 05:41:40;;;;;;;13.47;8.20;;;;;;;19.49;38.42;97364.56;4955139;29;20228;-28
2023/04/07 05:44:06;;;;;;;11.17;8.43;;;;;;;19.58;38.14;97389.47;4950937;29;20642;-29
2023/04/07 05:46:33;;;;;;;9.63;8.57;;;;;;;19.58;37.41;97390.34;4951298;28;20200;-29
2023/04/07 05:49:00;;;;;;;9.57;8.67;;;;;;;19.55;36.81;97385.16;4953259;28;20206;-31
2023/04/07 05:51:45;;;;;;;15.17;9.37;;;;;;;19.53;37.07;97391.88;4943310;29;20220;-27
2023/04/07 05:54:14;;;;;;;9.77;8.63;;;;;;;19.42;37.20;97372.78;4952528;29;20204;-27
2023/04/07 05:56:40;;;;;;;10.10;8.87;;;;;;;19.05;37.02;97315.34;4954968;29;20594;-30
2023/04/07 05:59:07;;;;;;;10.40;9.40;;;;;;;19.38;36.86;97376.03;4950159;28;20225;-29
2023/04/07 06:01:34;;;;;;;10.53;9.30;;;;;;;19.41;36.28;97390.56;4955292;28;20216;-29
2023/04/07 06:04:02;;;;;;;11.43;9.30;;;;;;;19.42;36.47;97392.31;4955187;29;20681;-29
2023/04/07 06:06:29;;;;;;;10.93;8.93;;;;;;;19.40;37.16;97402.44;4947983;28;20243;-29
2023/04/07 06:08:55;;;;;;;10.47;8.53;;;;;;;19.30;37.31;97382.53;4936660;29;20207;-29
2023/04/07 06:11:22;;;;;;;10.83;9.40;;;;;;;19.35;37.62;97390.34;4944858;29;20264;-28
2023/04/07 06:13:48;;;;;;;15.00;8.80;;;;;;;19.33;38.96;97389.44;4929067;29;20209;-27
2023/04/07 06:16:15;;;;;;;11.60;8.40;;;;;;;19.27;39.24;97381.59;4944550;29;20211;-27
2023/04/07 06:18:45;;;;;;;9.23;8.23;;;;;;;19.33;40.30;97385.19;4951151;28;20212;-33
2023/04/07 06:21:11;;;;;;;9.23;8.10;;;;;;;19.31;40.75;97383.41;4952807;28;20228;-28
2023/04/07 06:23:38;;;;;;;11.60;8.03;;;;;;;19.31;40.84;97385.97;4951179;29;20268;-30
2023/04/07 06:26:04;;;;;;;8.63;7.77;;;;;;;19.33;41.01;97390.28;4949148;28;20303;-27
2023/04/07 06:28:31;;;;;;;14.67;7.63;;;;;;;19.33;41.18;97392.84;4953519;29;20200;-28
2023/04/07 06:30:58;;;;;;;11.03;9.17;;;;;;;19.33;38.66;97389.44;4955815;28;20306;-28
2023/04/07 06:33:27;;;;;;;12.43;10.80;;;;;;;19.31;37.14;97391.06;4952471;28;20209;-28
2023/04/07 06:35:53;;;;;;;12.77;9.70;;;;;;;19.29;38.04;97388.47;4947080;29;20201;-32
2023/04/07 06:38:20;;;;;;;16.37;10.10;;;;;;;19.29;38.13;97385.91;4945153;29;20205;-29
2023/04/07 06:40:47;;;;;;;12.03;9.23;;;;;;;19.30;38.85;97385.09;4936460;29;20766;-27
2023/04/07 06:43:13;;;;;;;13.03;9.03;;;;;;;19.29;39.67;97393.56;4937114;29;20200;-28
2023/04/07 06:45:40;;;;;;;14.27;8.40;;;;;;;19.26;39.71;97383.22;4946810;28;20666;-28
2023/04/07 06:48:06;;;;;;;10.60;8.90;;;;;;;19.27;40.38;97395.16;4950711;29;20723;-29
2023/04/07 06:50:33;;;;;;;8.93;8.03;;;;;;;19.24;40.31;97384.81;4935034;29;20582;-29
2023/04/07 06:53:00;;;;;;;10.27;8.27;;;;;;;19.23;41.59;97379.69;4944683;29;20638;-29
2023/04/07 06:55:26;;;;;;;10.03;7.53;;;;;;;19.24;41.21;97377.19;4947922;29;20303;-32
2023/04/07 06:57:53;;;;;;;11.57;7.77;;;;;;;19.22;41.86;97371.16;4955603;29;20204;-29
2023/04/07 07:00:21;;;;;;;7.30;6.60;;;;;;;19.26;42.14;97373.03;4952404;29;20332;-28
2023/04/07 07:02:49;;;;;;;8.27;7.07;;;;;;;19.30;42.46;97382.53;4949458;28;20205;-28
2023/04/07 07:05:16;;;;;;;9.73;7.17;;;;;;;19.32;42.54;97380.03;4950645;29;20204;-29
2023/04/07 07:07:42;;;;;;;8.30;6.97;;;;;;;19.32;42.74;97374.94;4950394;29;20207;-28
2023/04/07 07:10:09;;;;;;;9.30;6.73;;;;;;;19.32;43.07;97372.41;4952946;28;20290;-28
2023/04/07 07:12:36;;;;;;;8.73;7.27;;;;;;;19.32;43.10;97377.50;4946641;29;20243;-27
2023/04/07 07:15:03;;;;;;;7.07;6.37;;;;;;;19.03;43.32;97325.47;4955201;29;20267;-27
2023/04/07 07:17:29;;;;;;;10.37;6.37;;;;;;;19.19;43.75;97349.81;4944735;29;20200;-30
2023/04/07 07:19:56;;;;;;;7.60;6.27;;;;;;;19.33;43.52;97375.00;4954355;28;20259;-27
2023/04/07 07:22:23;;;;;;;7.83;6.27;;;;;;;19.23;43.60;97360.19;4948948;29;20200;-28
2023/04/07 07:24:49;;;;;;;8.63;5.90;;;;;;;19.34;43.18;97379.31;4948561;29;20697;-28
2023/04/07 07:27:16;;;;;;;7.17;5.97;;;;;;;19.34;44.13;97375.88;4950415;28;20205;-29
2023/04/07 07:29:43;;;;;;;7.83;5.93;;;;;;;19.36;44.23;97375.09;4949929;28;22050;-28
2023/04/07 07:32:09;;;;;;;6.33;5.73;;;;;;;19.36;44.37;97376.81;4951171;28;20555;-27
2023/04/07 07:34:36;;;;;;;7.30;5.93;;;;;;;19.35;44.45;97365.75;4945208;29;20286;-29
2023/04/07 07:37:02;;;;;;;5.50;5.00;;;;;;;19.36;44.55;97369.16;4948501;29;20337;-29
2023/04/07 07:39:29;;;;;;;7.83;5.27;;;;;;;19.38;44.27;97375.16;4943195;29;20308;-29
2023/04/07 07:41:56;;;;;;;9.07;5.13;;;;;;;19.33;44.63;97363.97;4950420;28;20235;-33
2023/04/07 07:44:22;;;;;;;7.47;5.53;;;;;;;19.33;44.42;97357.16;4946455;28;20490;-28
2023/04/07 07:46:49;;;;;;;8.03;5.33;;;;;;;19.37;44.49;97379.41;4948840;29;20205;-32
2023/04/07 07:49:16;;;;;;;8.03;5.43;;;;;;;19.39;44.39;97380.31;4941551;28;20334;-28
2023/04/07 07:51:44;;;;;;;7.10;5.27;;;;;;;19.41;45.06;97377.81;4952932;28;20224;-28
2023/04/07 07:54:11;;;;;;;6.90;5.13;;;;;;;19.37;44.81;97368.34;4943683;29;20240;-28
2023/04/07 07:56:38;;;;;;;6.17;5.00;;;;;;;19.37;44.55;97361.56;4947047;29;20205;-29
2023/04/07 07:59:10;;;;;;;6.33;4.97;;;;;;;19.37;44.95;97360.69;4949511;29;20285;-29
2023/04/07 08:01:36;;;;;;;5.47;4.80;;;;;;;19.41;45.11;97370.16;4946215;29;20222;-28
2023/04/07 08:04:03;;;;;;;7.70;4.90;;;;;;;19.41;45.11;97373.59;4948658;29;20204;-28
2023/04/07 08:06:30;;;;;;;6.60;4.37;;;;;;;19.32;44.93;97358.00;4949726;29;20601;-28
2023/04/07 08:08:57;;;;;;;5.87;5.17;;;;;;;19.41;45.32;97368.50;4947853;29;20205;-28
2023/04/07 08:11:24;;;;;;;6.23;5.17;;;;;;;19.40;45.67;97366.78;4947211;29;20335;-29
2023/04/07 08:13:52;;;;;;;6.93;5.17;;;;;;;19.41;45.56;97373.59;4947002;29;20570;-31
2023/04/07 08:16:20;;;;;;;7.13;4.60;;;;;;;19.42;45.60;97371.94;4947425;29;20204;-29
2023/04/07 08:18:47;;;;;;;5.57;4.47;;;;;;;19.42;45.47;97371.94;4945903;28;20241;-27
2023/04/07 08:21:14;;;;;;;5.27;4.57;;;;;;;19.42;45.50;97382.13;4952639;28;20231;-28
2023/04/07 08:23:41;;;;;;;6.90;4.77;;;;;;;19.41;45.73;97370.16;4943649;29;20196;-29
2023/04/07 08:26:08;;;;;;;6.10;4.40;;;;;;;19.42;45.59;97369.38;4954011;29;20207;-29
2023/04/07 08:28:35;;;;;;;4.60;3.90;;;;;;;19.39;45.61;97357.38;4942314;29;20663;-28
2023/04/07 08:31:01;;;;;;;5.93;4.60;;;;;;;19.43;45.84;97381.28;4946593;29;20308;-27
2023/04/07 08:33:28;;;;;;;5.37;4.07;;;;;;;19.43;45.56;97369.44;4940243;29;20219;-29
2023/04/07 08:35:55;;;;;;;5.97;4.30;;;;;;;19.39;45.91;97362.47;4940069;29;20276;-29
2023/04/07 08:38:22;;;;;;;7.07;4.20;;;;;;;19.43;45.74;97368.56;4946752;28;20697;-29
2023/04/07 08:40:51;;;;;;;6.23;3.90;;;;;;;19.29;45.95;97346.81;4953029;28;20315;-28
2023/04/07 08:43:18;;;;;;;4.53;3.80;;;;;;;19.38;45.81;97362.41;4920498;29;20204;-30
2023/04/07 08:45:45;;;;;;;5.77;3.80;;;;;;;19.42;46.49;97369.38;4920927;28;20200;-29
2023/04/07 08:48:16;;;;;;;5.53;3.97;;;;;;;19.44;45.96;97368.59;4917558;29;20201;-34
2023/04/07 08:50:44;;;;;;;5.77;3.93;;;;;;;19.41;46.19;97363.41;4942232;28;20300;-27
2023/04/07 08:53:13;;;;;;;6.03;3.87;;;;;;;19.34;46.02;97355.50;4945785;29;20291;-30
2023/04/07 08:55:40;;;;;;;7.43;4.40;;;;;;;19.45;46.15;97372.03;4932814;29;20667;-28
2023/04/07 08:58:11;;;;;;;6.33;4.20;;;;;;;19.44;46.06;97372.81;4950885;29;20211;-29
2023/04/07 09:00:44;;;;;;;5.40;4.20;;;;;;;19.42;46.13;97364.28;4951396;29;20710;-28
2023/04/07 09:03:11;;;;;;;5.67;4.13;;;;;;;19.33;46.16;97352.06;4945374;29;20200;-27
2023/04/07 09:05:38;;;;;;;7.03;4.00;;;;;;;19.44;46.24;97381.34;4910465;29;20196;-27
2023/04/07 09:08:05;;;;;;;7.60;3.93;;;;;;;19.40;45.94;97365.91;4926535;29;20205;-27
2023/04/07 09:10:32;;;;;;;4.33;3.67;;;;;;;19.44;46.41;97366.06;4949525;28;20227;-27
2023/04/07 09:12:58;;;;;;;6.47;4.07;;;;;;;19.27;46.41;97338.25;4931934;29;20583;-29
2023/04/07 09:15:29;;;;;;;6.90;4.03;;;;;;;19.44;46.46;97365.19;4939945;29;20200;-28
2023/04/07 09:17:57;;;;;;;8.07;4.17;;;;;;;19.43;46.37;97356.69;4934613;29;20256;-28
2023/04/07 09:20:24;;;;;;;6.83;3.97;;;;;;;19.36;46.25;97354.72;4943541;29;20228;-28
2023/04/07 09:22:50;;;;;;;6.43;3.80;;;;;;;19.44;46.46;97360.97;4915023;29;20204;-28
2023/04/07 09:25:18;;;;;;;4.67;3.70;;;;;;;19.45;46.37;97365.22;4946089;29;20232;-28
2023/04/07 09:27:54;;;;;;;7.30;4.43;;;;;;;19.45;45.36;97364.38;4941609;29;20256;-27
2023/04/07 09:30:21;;;;;;;7.00;4.63;;;;;;;19.38;45.19;97354.78;4942722;29;20272;-27
2023/04/07 09:32:47;;;;;;;7.70;4.70;;;;;;;19.32;45.65;97339.28;4946689;29;20203;-28
2023/04/07 09:35:14;;;;;;;6.80;4.57;;;;;;;19.45;45.81;97356.75;4946150;28;20227;-28
2023/04/07 09:37:41;;;;;;;5.67;4.43;;;;;;;19.45;45.82;97359.28;4932065;29;20205;-29
2023/04/07 09:40:08;;;;;;;8.90;4.50;;;;;;;19.44;45.63;97357.53;4947435;28;20768;-27
2023/04/07 09:42:37;;;;;;;4.70;3.90;;;;;;;19.43;45.53;97354.16;4946910;29;20553;-30
2023/04/07 09:45:04;;;;;;;6.30;3.73;;;;;;;19.29;45.88;97323.88;4944862;28;20201;-27
2023/04/07 09:47:31;;;;;;;4.87;4.10;;;;;;;19.32;45.96;97334.19;4935012;29;20209;-29
2023/04/07 09:49:58;;;;;;;6.27;4.37;;;;;;;19.45;45.37;97349.09;4947655;28;20234;-29
2023/04/07 09:52:46;;;;;;;6.03;4.00;;;;;;;19.45;46.38;97351.66;4945077;29;20212;-29
2023/04/07 09:55:12;;;;;;;4.73;3.97;;;;;;;19.45;46.24;97352.50;4928492;29;20208;-30
2023/04/07 09:57:39;;;;;;;6.40;4.20;;;;;;;19.45;46.51;97346.56;4915434;28;20200;-29
2023/04/07 10:00:06;;;;;;;8.43;4.10;;;;;;;19.44;46.52;97347.34;4927066;29;20782;-29
2023/04/07 10:02:33;;;;;;;5.23;3.90;;;;;;;19.45;46.44;97349.09;4935761;29;20591;-27
2023/04/07 10:04:59;;;;;;;5.00;3.47;;;;;;;19.44;45.92;97347.34;4915253;29;20291;-29
2023/04/07 10:07:26;;;;;;;5.80;3.93;;;;;;;19.45;46.80;97349.09;4920509;29;20235;-30
2023/04/07 10:09:53;;;;;;;4.87;3.73;;;;;;;19.40;46.64;97332.78;4912215;29;20228;-29
2023/04/07 10:12:19;;;;;;;4.67;3.73;;;;;;;19.40;46.90;97328.56;4950894;29;20237;-29
2023/04/07 10:14:46;;;;;;;4.97;3.73;;;;;;;19.38;46.41;97331.84;4920001;29;20203;-27
2023/04/07 10:17:17;;;;;;;5.30;3.70;;;;;;;19.42;46.47;97338.81;4916473;29;20205;-29
2023/04/07 10:19:45;;;;;;;4.33;3.50;;;;;;;19.45;46.63;97341.44;4934693;29;20295;-28
2023/04/07 10:22:11;;;;;;;5.17;3.63;;;;;;;19.46;46.68;97333.84;4954670;29;20223;-29
2023/04/07 10:24:50;;;;;;;4.23;3.57;;;;;;;19.48;47.31;97344.94;4938420;28;20204;-27
2023/04/07 10:27:20;;;;;;;10.87;4.73;;;;;;;19.43;47.92;97322.69;4949592;29;20209;-29
2023/04/07 10:29:48;;;;;;;9.10;4.43;;;;;;;19.50;48.34;97327.16;4923203;29;20216;-29
2023/04/07 10:32:15;;;;;;;18.43;4.90;;;;;;;19.50;48.30;97332.25;4948973;28;20287;-29
2023/04/07 10:34:52;;;;;;;13.57;5.60;;;;;;;19.52;48.08;97335.75;4944412;29;20235;-29
2023/04/07 10:37:21;;;;;;;14.07;4.87;;;;;;;19.38;48.08;97311.47;4942154;29;20766;-29
2023/04/07 10:39:49;;;;;;;11.27;5.37;;;;;;;19.47;47.80;97329.59;4942528;29;20268;-27
2023/04/07 10:42:37;;;;;;;15.63;5.27;;;;;;;19.53;47.70;97338.34;4943544;28;20207;-29
2023/04/07 10:45:05;;;;;;;12.83;5.23;;;;;;;19.52;47.61;97334.06;4944695;28;20660;-28
2023/04/07 10:47:32;;;;;;;14.60;5.80;;;;;;;19.53;47.69;97334.91;4953017;28;20204;-28
2023/04/07 10:50:22;;;;;;;14.03;5.47;;;;;;;19.52;47.70;97328.97;4942938;29;20220;-29
2023/04/07 10:53:11;;;;;;;14.93;5.27;;;;;;;19.51;47.87;97334.03;4941996;28;20280;-27
2023/04/07 10:55:44;;;;;;;18.37;5.53;;;;;;;19.52;47.65;97328.97;4941582;28;20287;-28
2023/04/07 10:58:23;;;;;;;16.57;5.73;;;;;;;19.51;47.81;97329.75;4944491;29;20251;-28
2023/04/07 11:01:13;;;;;;;9.43;4.70;;;;;;;19.51;47.77;97332.31;4941133;28;20723;-28
2023/04/07 11:03:41;;;;;;;11.60;5.13;;;;;;;19.52;47.73;97330.66;4947298;29;20208;-29
2023/04/07 11:06:12;;;;;;;11.07;4.87;;;;;;;19.44;47.81;97320.19;4944685;28;20231;-29
2023/04/07 11:08:44;;;;;;;13.50;4.80;;;;;;;19.51;47.86;97332.31;4951283;29;20691;-27
2023/04/07 11:11:15;;;;;;;14.70;5.27;;;;;;;19.52;47.50;97328.09;4950513;28;20255;-27
2023/04/07 11:13:48;;;;;;;12.23;4.90;;;;;;;19.49;47.62;97326.31;4951398;29;20204;-29
2023/04/07 11:16:16;;;;;;;12.97;5.03;;;;;;;19.52;47.35;97325.53;4953409;28;20197;-33
2023/04/07 11:18:44;;;;;;;10.07;4.67;;;;;;;19.39;47.42;97297.91;4933110;28;20197;-28
2023/04/07 11:21:10;;;;;;;8.60;4.57;;;;;;;19.51;47.94;97328.91;4948615;29;20230;-29
2023/04/07 11:23:44;;;;;;;11.77;4.93;;;;;;;19.49;47.63;97318.66;4953919;29;20356;-27
2023/04/07 11:26:12;;;;;;;7.67;4.27;;;;;;;19.35;47.67;97289.28;4937015;29;20199;-28
2023/04/07 11:28:48;;;;;;;8.07;4.10;;;;;;;19.50;47.52;97316.97;4938527;29;20672;-28
2023/04/07 11:31:27;;;;;;;8.93;4.30;;;;;;;19.49;47.65;97315.25;4953779;28;20216;-27
2023/04/07 11:33:58;;;;;;;11.73;4.77;;;;;;;19.51;47.65;97313.63;4941274;29;20833;-30
2023/04/07 11:36:29;;;;;;;8.63;3.93;;;;;;;19.48;47.79;97311.81;4952035;28;20200;-27